createdAt,value
2022-10-21T00:00:34.431Z,102155.23
2022-10-21T00:01:57.170Z,102153.75
2022-10-21T00:02:59.995Z,102152.48
2022-10-21T00:04:03.949Z,102151.65
2022-10-21T00:05:07.186Z,102151.41
2022-10-21T00:06:10.397Z,102149.29
2022-10-21T00:07:13.256Z,102150.52
2022-10-21T00:08:16.537Z,102149.13
2022-10-21T00:09:19.459Z,102149.41
2022-10-21T00:10:22.517Z,102150.69
2022-10-21T00:11:25.332Z,102149.90
2022-10-21T00:12:28.905Z,102150.61
2022-10-21T00:13:32.985Z,102147.14
2022-10-21T00:14:35.786Z,102149.45
2022-10-21T00:15:38.661Z,102148.16
2022-10-21T00:16:41.747Z,102146.66
2022-10-21T00:17:44.594Z,102140.94
2022-10-21T00:18:48.070Z,102142.02
2022-10-21T00:19:51.367Z,102135.90
2022-10-21T00:20:54.301Z,102131.52
2022-10-21T00:21:57.124Z,102128.24
2022-10-21T00:22:59.981Z,102122.52
2022-10-21T00:24:02.885Z,102121.94
2022-10-21T00:25:05.917Z,102121.21
2022-10-21T00:26:09.290Z,102114.33
2022-10-21T00:27:12.118Z,102108.81
2022-10-21T00:28:14.999Z,102108.38
2022-10-21T00:29:17.882Z,102103.55
2022-10-21T00:30:20.708Z,102099.95
2022-10-21T00:31:24.644Z,102098.40
2022-10-21T00:32:27.455Z,102094.79
2022-10-21T00:33:30.445Z,102092.89
2022-10-21T00:34:33.400Z,102091.79
2022-10-21T00:35:36.283Z,102094.60
2022-10-21T00:36:39.315Z,102099.85
2022-10-21T00:37:42.238Z,102098.90
2022-10-21T00:38:47.072Z,102101.65
2022-10-21T00:39:51.092Z,102101.20
2022-10-21T00:40:54.031Z,102096.16
2022-10-21T00:41:57.151Z,102093.49
2022-10-21T00:43:00.348Z,102093.36
2022-10-21T00:44:05.060Z,102091.81
2022-10-21T00:45:07.864Z,102094.59
2022-10-21T00:46:11.140Z,102089.35
2022-10-21T00:47:17.685Z,102086.59
2022-10-21T00:48:31.822Z,102083.98
2022-10-21T00:49:40.267Z,102082.95
2022-10-21T00:50:45.991Z,102082.33
2022-10-21T00:51:52.837Z,102079.36
2022-10-21T00:52:57.195Z,102081.34
2022-10-21T00:54:00.951Z,102080.66
2022-10-21T00:55:05.064Z,102075.98
2022-10-21T00:56:15.399Z,102066.79
2022-10-21T00:57:21.124Z,102064.09
2022-10-21T00:58:25.960Z,102062.60
2022-10-21T00:59:31.433Z,102060.02
2022-10-21T01:00:34.294Z,102053.88
2022-10-21T01:01:37.151Z,102050.38
2022-10-21T01:02:40.088Z,102042.30
2022-10-21T01:03:43.131Z,102038.45
2022-10-21T01:04:46.873Z,102036.52
2022-10-21T01:06:59.486Z,102034.21
2022-10-21T01:08:02.454Z,102034.23
2022-10-21T01:09:05.672Z,102033.30
2022-10-21T01:10:09.025Z,102036.39
2022-10-21T01:11:13.550Z,102033.80
2022-10-21T01:12:33.857Z,102027.75
2022-10-21T01:13:36.674Z,102024.11
2022-10-21T01:15:18.154Z,102025.45
2022-10-21T01:16:30.419Z,102024.73
2022-10-21T01:17:45.141Z,102025.05
2022-10-21T01:18:59.071Z,102023.21
2022-10-21T01:20:02.035Z,102019.55
2022-10-21T01:21:04.909Z,102017.67
2022-10-21T01:22:29.191Z,102017.30
2022-10-21T01:23:50.886Z,102014.80
2022-10-21T01:24:56.877Z,102017.13
2022-10-21T01:26:05.700Z,102012.14
2022-10-21T01:27:27.538Z,102005.73
2022-10-21T01:28:48.873Z,101997.75
2022-10-21T01:30:24.472Z,101994.15
2022-10-21T01:31:33.311Z,101995.10
2022-10-21T01:32:38.883Z,101997.25
2022-10-21T01:33:43.246Z,101993.05
2022-10-21T01:34:52.542Z,101988.58
2022-10-21T01:36:04.893Z,101991.97
2022-10-21T01:37:07.811Z,101991.20
2022-10-21T01:38:20.107Z,101993.94
2022-10-21T01:39:22.896Z,101987.84
2022-10-21T01:40:34.718Z,101986.92
2022-10-21T01:41:56.677Z,101989.45
2022-10-21T01:43:03.966Z,101987.02
2022-10-21T01:44:15.884Z,101992.24
2022-10-21T01:45:19.027Z,101990.54
2022-10-21T01:46:31.862Z,101990.59
2022-10-21T01:47:37.594Z,101994.14
2022-10-21T01:48:43.730Z,101992.90
2022-10-21T01:49:53.679Z,101989.52
2022-10-21T01:50:58.689Z,101988.17
2022-10-21T01:52:03.940Z,101987.92
2022-10-21T01:53:08.503Z,101991.84
2022-10-21T01:54:16.000Z,101986.95
2022-10-21T01:55:20.686Z,101988.20
2022-10-21T01:56:24.184Z,101986.47
2022-10-21T01:57:28.425Z,101985.52
2022-10-21T01:58:34.144Z,101987.02
2022-10-21T01:59:40.010Z,101985.55
2022-10-21T02:00:43.802Z,101981.34
2022-10-21T02:01:47.175Z,101982.80
2022-10-21T02:02:50.134Z,101978.71
2022-10-21T02:03:55.021Z,101981.92
2022-10-21T02:05:01.060Z,101976.54
2022-10-21T02:06:04.098Z,101976.52
2022-10-21T02:07:07.295Z,101976.75
2022-10-21T02:08:10.379Z,101976.45
2022-10-21T02:09:13.311Z,101972.43
2022-10-21T02:10:17.663Z,101966.42
2022-10-21T02:11:20.469Z,101964.64
2022-10-21T02:12:24.562Z,101965.33
2022-10-21T02:13:32.482Z,101965.02
2022-10-21T02:14:37.302Z,101964.55
2022-10-21T02:15:41.401Z,101967.67
2022-10-21T02:16:49.314Z,101967.67
2022-10-21T02:17:55.212Z,101964.08
2022-10-21T02:18:59.661Z,101968.30
2022-10-21T02:20:03.824Z,101965.27
2022-10-21T02:21:10.366Z,101962.51
2022-10-21T02:22:14.921Z,101965.62
2022-10-21T02:23:19.318Z,101962.09
2022-10-21T02:24:26.980Z,101963.77
2022-10-21T02:25:33.140Z,101962.91
2022-10-21T02:26:36.095Z,101966.56
2022-10-21T02:27:38.965Z,101961.56
2022-10-21T02:28:41.873Z,101957.88
2022-10-21T02:29:46.136Z,101953.29
2022-10-21T02:32:10.003Z,101947.94
2022-10-21T02:33:23.682Z,101943.80
2022-10-21T02:34:35.513Z,101942.04
2022-10-21T02:35:46.238Z,101943.46
2022-10-21T02:37:04.069Z,101935.50
2022-10-21T02:38:22.457Z,101932.09
2022-10-21T02:39:29.676Z,101932.85
2022-10-21T02:40:47.296Z,101930.54
2022-10-21T02:41:51.197Z,101930.01
2022-10-21T02:42:57.023Z,101930.37
2022-10-21T02:44:01.573Z,101930.51
2022-10-21T02:45:04.988Z,101927.15
2022-10-21T02:46:09.759Z,101925.42
2022-10-21T02:47:12.768Z,101926.73
2022-10-21T02:48:16.019Z,101925.01
2022-10-21T02:49:19.089Z,101926.45
2022-10-21T02:50:21.978Z,101923.35
2022-10-21T02:51:24.793Z,101925.33
2022-10-21T02:52:27.813Z,101922.40
2022-10-21T02:53:31.320Z,101920.45
2022-10-21T02:54:34.134Z,101925.39
2022-10-21T02:55:37.014Z,101919.96
2022-10-21T02:56:39.829Z,101922.86
2022-10-21T02:57:42.793Z,101919.27
2022-10-21T02:58:45.727Z,101917.31
2022-10-21T02:59:48.807Z,101916.64
2022-10-21T03:00:51.838Z,101915.08
2022-10-21T03:01:54.727Z,101915.05
2022-10-21T03:02:57.583Z,101909.45
2022-10-21T03:04:00.386Z,101904.96
2022-10-21T03:05:03.392Z,101902.95
2022-10-21T03:06:06.373Z,101906.35
2022-10-21T03:07:09.237Z,101905.88
2022-10-21T03:08:12.168Z,101898.16
2022-10-21T03:09:14.954Z,101897.98
2022-10-21T03:10:17.812Z,101896.59
2022-10-21T03:11:20.746Z,101898.61
2022-10-21T03:12:23.556Z,101895.45
2022-10-21T03:13:26.380Z,101893.20
2022-10-21T03:14:29.217Z,101892.20
2022-10-21T03:15:32.175Z,101890.90
2022-10-21T03:16:35.061Z,101889.02
2022-10-21T03:17:38.122Z,101888.52
2022-10-21T03:18:41.467Z,101884.16
2022-10-21T03:19:44.362Z,101882.20
2022-10-21T03:20:50.706Z,101882.37
2022-10-21T03:21:53.882Z,101880.27
2022-10-21T03:22:56.670Z,101875.42
2022-10-21T03:23:59.676Z,101870.45
2022-10-21T03:25:02.512Z,101872.41
2022-10-21T03:26:05.401Z,101871.01
2022-10-21T03:27:08.755Z,101866.89
2022-10-21T03:28:11.637Z,101866.33
2022-10-21T03:29:14.761Z,101865.52
2022-10-21T03:30:17.954Z,101861.05
2022-10-21T03:31:20.922Z,101860.11
2022-10-21T03:32:23.793Z,101857.80
2022-10-21T03:33:26.912Z,101856.54
2022-10-21T03:34:29.698Z,101857.98
2022-10-21T03:35:32.535Z,101856.70
2022-10-21T03:36:35.335Z,101857.33
2022-10-21T03:37:38.375Z,101857.98
2022-10-21T03:38:41.173Z,101855.23
2022-10-21T03:39:44.148Z,101857.69
2022-10-21T03:40:47.005Z,101857.48
2022-10-21T03:41:50.028Z,101861.85
2022-10-21T03:42:52.899Z,101861.79
2022-10-21T03:43:55.726Z,101863.25
2022-10-21T03:44:58.537Z,101859.65
2022-10-21T03:46:01.612Z,101864.80
2022-10-21T03:47:04.510Z,101862.21
2022-10-21T03:48:07.741Z,101855.13
2022-10-21T03:49:18.409Z,101854.09
2022-10-21T03:50:26.673Z,101855.71
2022-10-21T03:51:29.878Z,101854.54
2022-10-21T03:52:32.858Z,101857.09
2022-10-21T03:53:43.343Z,101857.42
2022-10-21T03:54:46.592Z,101856.16
2022-10-21T03:55:54.259Z,101860.63
2022-10-21T03:56:59.600Z,101864.67
2022-10-21T03:58:02.479Z,101859.65
2022-10-21T03:59:05.441Z,101859.04
2022-10-21T04:00:08.893Z,101856.52
2022-10-21T04:01:17.916Z,101856.27
2022-10-21T04:02:20.789Z,101853.51
2022-10-21T04:03:23.598Z,101849.34
2022-10-21T04:04:26.698Z,101846.23
2022-10-21T04:05:29.583Z,101845.37
2022-10-21T04:06:32.857Z,101847.80
2022-10-21T04:07:35.686Z,101848.69
2022-10-21T04:08:38.713Z,101850.55
2022-10-21T04:09:41.746Z,101849.92
2022-10-21T04:10:45.557Z,101855.30
2022-10-21T04:11:48.417Z,101854.82
2022-10-21T04:12:51.219Z,101852.90
2022-10-21T04:13:54.017Z,101844.88
2022-10-21T04:14:56.969Z,101842.69
2022-10-21T04:16:01.223Z,101842.02
2022-10-21T04:17:07.528Z,101841.77
2022-10-21T04:18:10.778Z,101846.66
2022-10-21T04:19:18.032Z,101840.48
2022-10-21T04:20:21.106Z,101836.58
2022-10-21T04:22:31.896Z,101838.10
2022-10-21T04:23:35.042Z,101835.14
2022-10-21T04:24:37.994Z,101831.23
2022-10-21T04:25:43.667Z,101827.39
2022-10-21T04:26:46.479Z,101822.09
2022-10-21T04:27:49.359Z,101819.54
2022-10-21T04:28:52.353Z,101821.42
2022-10-21T04:29:55.252Z,101819.73
2022-10-21T04:30:58.282Z,101811.91
2022-10-21T04:32:01.091Z,101814.54
2022-10-21T04:33:04.264Z,101810.18
2022-10-21T04:34:07.108Z,101811.84
2022-10-21T04:35:10.144Z,101818.04
2022-10-21T04:36:13.213Z,101820.80
2022-10-21T04:37:16.226Z,101823.90
2022-10-21T04:38:19.313Z,101821.85
2022-10-21T04:39:22.133Z,101820.61
2022-10-21T04:40:25.117Z,101819.02
2022-10-21T04:41:28.346Z,101817.73
2022-10-21T04:42:31.339Z,101815.66
2022-10-21T04:43:34.311Z,101811.45
2022-10-21T04:44:37.903Z,101807.08
2022-10-21T04:45:40.816Z,101803.73
2022-10-21T04:46:43.735Z,101803.98
2022-10-21T04:47:46.659Z,101796.80
2022-10-21T04:48:49.536Z,101795.58
2022-10-21T04:49:52.428Z,101789.71
2022-10-21T04:50:55.779Z,101785.96
2022-10-21T04:51:58.936Z,101782.88
2022-10-21T04:53:01.699Z,101777.80
2022-10-21T04:54:04.776Z,101776.60
2022-10-21T04:55:08.113Z,101774.25
2022-10-21T04:56:11.500Z,101770.64
2022-10-21T04:57:14.409Z,101775.42
2022-10-21T04:58:20.934Z,101772.14
2022-10-21T04:59:25.483Z,101771.75
2022-10-21T05:00:28.325Z,101769.54
2022-10-21T05:01:31.482Z,101764.17
2022-10-21T05:02:34.637Z,101766.33
2022-10-21T05:03:37.759Z,101769.70
2022-10-21T05:04:40.614Z,101765.73
2022-10-21T05:05:43.455Z,101765.47
2022-10-21T05:06:46.335Z,101763.35
2022-10-21T05:07:49.747Z,101760.20
2022-10-21T05:08:52.809Z,101758.10
2022-10-21T05:09:55.617Z,101757.04
2022-10-21T05:11:00.343Z,101756.11
2022-10-21T05:12:03.576Z,101756.23
2022-10-21T05:13:06.535Z,101752.70
2022-10-21T05:14:09.378Z,101750.13
2022-10-21T05:15:14.078Z,101749.42
2022-10-21T05:16:17.277Z,101751.52
2022-10-21T05:17:20.087Z,101747.89
2022-10-21T05:18:23.020Z,101742.40
2022-10-21T05:19:30.364Z,101740.27
2022-10-21T05:20:34.143Z,101740.83
2022-10-21T05:22:44.671Z,101742.45
2022-10-21T05:23:47.718Z,101741.67
2022-10-21T05:24:50.646Z,101745.19
2022-10-21T05:25:53.572Z,101746.05
2022-10-21T05:26:56.449Z,101743.04
2022-10-21T05:27:59.261Z,101746.41
2022-10-21T05:29:02.429Z,101745.08
2022-10-21T05:30:05.610Z,101739.41
2022-10-21T05:31:08.422Z,101735.36
2022-10-21T05:32:11.183Z,101733.38
2022-10-21T05:33:14.101Z,101735.67
2022-10-21T05:34:17.230Z,101736.67
2022-10-21T05:35:20.113Z,101736.28
2022-10-21T05:36:24.121Z,101735.05
2022-10-21T05:37:27.273Z,101734.63
2022-10-21T05:38:30.252Z,101727.73
2022-10-21T05:39:33.239Z,101730.97
2022-10-21T05:40:36.146Z,101727.42
2022-10-21T05:41:41.033Z,101724.88
2022-10-21T05:42:45.929Z,101726.36
2022-10-21T05:43:48.778Z,101726.22
2022-10-21T05:44:51.749Z,101726.20
2022-10-21T05:45:54.686Z,101720.17
2022-10-21T05:46:57.608Z,101722.25
2022-10-21T05:48:00.414Z,101724.40
2022-10-21T05:49:03.919Z,101724.98
2022-10-21T05:50:07.597Z,101720.92
2022-10-21T05:51:10.651Z,101723.92
2022-10-21T05:52:13.462Z,101724.98
2022-10-21T05:53:16.805Z,101726.54
2022-10-21T05:54:19.764Z,101723.16
2022-10-21T05:55:22.761Z,101722.15
2022-10-21T05:56:25.552Z,101721.83
2022-10-21T05:57:28.511Z,101717.63
2022-10-21T05:58:32.601Z,101719.81
2022-10-21T05:59:35.417Z,101717.09
2022-10-21T06:00:38.381Z,101718.54
2022-10-21T06:01:41.260Z,101719.88
2022-10-21T06:02:44.185Z,101719.41
2022-10-21T06:03:47.117Z,101722.71
2022-10-21T06:04:50.058Z,101720.84
2022-10-21T06:05:53.078Z,101724.59
2022-10-21T06:08:04.025Z,101722.27
2022-10-21T06:09:06.968Z,101724.45
2022-10-21T06:10:10.056Z,101722.28
2022-10-21T06:11:14.527Z,101715.91
2022-10-21T06:12:17.428Z,101714.14
2022-10-21T06:13:20.199Z,101711.25
2022-10-21T06:14:23.016Z,101707.66
2022-10-21T06:15:25.841Z,101707.16
2022-10-21T06:16:28.775Z,101705.00
2022-10-21T06:17:31.904Z,101706.90
2022-10-21T06:18:35.110Z,101702.48
2022-10-21T06:19:38.000Z,101706.55
2022-10-21T06:20:40.889Z,101707.02
2022-10-21T06:21:43.768Z,101705.12
2022-10-21T06:22:46.812Z,101704.60
2022-10-21T06:23:52.673Z,101706.92
2022-10-21T06:24:55.876Z,101703.20
2022-10-21T06:26:00.063Z,101702.73
2022-10-21T06:27:03.325Z,101700.52
2022-10-21T06:28:06.253Z,101698.75
2022-10-21T06:29:09.128Z,101698.45
2022-10-21T06:30:12.017Z,101694.51
2022-10-21T06:31:16.395Z,101693.57
2022-10-21T06:32:19.367Z,101689.05
2022-10-21T06:33:26.180Z,101690.35
2022-10-21T06:34:30.357Z,101684.23
2022-10-21T06:35:33.158Z,101683.92
2022-10-21T06:36:38.223Z,101689.64
2022-10-21T06:37:41.369Z,101687.25
2022-10-21T06:38:44.511Z,101691.14
2022-10-21T06:39:47.473Z,101693.02
2022-10-21T06:40:50.253Z,101690.27
2022-10-21T06:41:53.347Z,101690.42
2022-10-21T06:43:16.301Z,101688.50
2022-10-21T06:44:19.435Z,101686.04
2022-10-21T06:45:22.291Z,101682.07
2022-10-21T06:46:25.258Z,101682.86
2022-10-21T06:47:28.103Z,101685.45
2022-10-21T06:48:31.286Z,101683.11
2022-10-21T06:49:34.575Z,101682.96
2022-10-21T06:50:37.934Z,101683.96
2022-10-21T06:51:40.768Z,101683.26
2022-10-21T06:52:43.792Z,101672.84
2022-10-21T06:53:47.862Z,101673.17
2022-10-21T06:54:50.833Z,101670.70
2022-10-21T06:56:20.157Z,101672.30
2022-10-21T06:57:23.393Z,101667.38
2022-10-21T06:58:26.357Z,101661.79
2022-10-21T06:59:30.381Z,101661.94
2022-10-21T07:00:33.221Z,101661.09
2022-10-21T07:01:48.387Z,101659.95
2022-10-21T07:02:59.794Z,101656.25
2022-10-21T07:04:06.839Z,101651.66
2022-10-21T07:05:10.327Z,101645.59
2022-10-21T07:06:13.798Z,101647.12
2022-10-21T07:07:16.630Z,101648.25
2022-10-21T07:08:22.361Z,101645.25
2022-10-21T07:09:32.859Z,101648.18
2022-10-21T07:10:35.853Z,101645.71
2022-10-21T07:11:38.694Z,101639.88
2022-10-21T07:12:41.588Z,101632.95
2022-10-21T07:13:44.564Z,101632.17
2022-10-21T07:14:47.428Z,101629.83
2022-10-21T07:16:00.137Z,101624.11
2022-10-21T07:17:03.357Z,101624.78
2022-10-21T07:18:06.173Z,101628.90
2022-10-21T07:19:10.565Z,101623.80
2022-10-21T07:20:13.474Z,101627.54
2022-10-21T07:21:18.467Z,101621.71
2022-10-21T07:22:21.331Z,101618.80
2022-10-21T07:23:24.244Z,101618.04
2022-10-21T07:26:26.388Z,101616.92
2022-10-21T07:27:49.833Z,101612.83
2022-10-21T07:28:54.792Z,101609.77
2022-10-21T07:29:57.668Z,101606.73
2022-10-21T07:31:00.438Z,101600.55
2022-10-21T07:32:03.257Z,101605.11
2022-10-21T07:33:06.204Z,101605.27
2022-10-21T07:34:09.380Z,101606.70
2022-10-21T07:35:12.307Z,101604.27
2022-10-21T07:36:19.021Z,101604.57
2022-10-21T07:37:22.092Z,101600.67
2022-10-21T07:38:25.157Z,101596.04
2022-10-21T07:39:27.987Z,101597.47
2022-10-21T07:40:31.093Z,101598.01
2022-10-21T07:41:38.669Z,101596.63
2022-10-21T07:42:41.818Z,101595.84
2022-10-21T07:43:44.969Z,101595.97
2022-10-21T07:44:49.542Z,101597.58
2022-10-21T07:45:52.452Z,101599.73
2022-10-21T07:46:55.819Z,101600.30
2022-10-21T07:47:58.899Z,101600.59
2022-10-21T07:49:01.872Z,101607.30
2022-10-21T07:50:04.808Z,101611.75
2022-10-21T07:51:11.943Z,101603.73
2022-10-21T07:53:26.010Z,101612.71
2022-10-21T07:54:29.093Z,101617.11
2022-10-21T07:55:32.220Z,101616.77
2022-10-21T07:56:36.533Z,101618.70
2022-10-21T07:57:39.813Z,101612.32
2022-10-21T07:58:43.084Z,101611.61
2022-10-21T07:59:46.244Z,101610.90
2022-10-21T08:00:49.130Z,101605.58
2022-10-21T08:01:53.191Z,101604.78
2022-10-21T08:02:57.368Z,101603.77
2022-10-21T08:04:00.166Z,101602.64
2022-10-21T08:05:03.400Z,101599.16
2022-10-21T08:06:07.521Z,101598.11
2022-10-21T08:07:13.165Z,101591.88
2022-10-21T08:08:17.151Z,101588.59
2022-10-21T08:09:20.008Z,101583.91
2022-10-21T08:10:23.038Z,101581.48
2022-10-21T08:11:27.226Z,101583.60
2022-10-21T08:12:30.149Z,101579.42
2022-10-21T08:13:33.486Z,101580.30
2022-10-21T08:14:36.263Z,101582.26
2022-10-21T08:15:49.883Z,101579.46
2022-10-21T08:16:53.385Z,101580.61
2022-10-21T08:17:56.463Z,101580.91
2022-10-21T08:18:59.990Z,101572.78
2022-10-21T08:20:03.500Z,101573.10
2022-10-21T08:21:06.511Z,101572.31
2022-10-21T08:22:09.690Z,101572.62
2022-10-21T08:23:13.307Z,101567.45
2022-10-21T08:24:16.267Z,101568.27
2022-10-21T08:25:19.306Z,101564.54
2022-10-21T08:26:22.305Z,101561.17
2022-10-21T08:27:25.087Z,101564.80
2022-10-21T08:28:29.554Z,101554.90
2022-10-21T08:29:34.312Z,101557.63
2022-10-21T08:30:39.329Z,101557.07
2022-10-21T08:31:42.292Z,101558.92
2022-10-21T08:32:45.123Z,101556.21
2022-10-21T08:33:48.757Z,101568.05
2022-10-21T08:34:51.902Z,101564.25
2022-10-21T08:35:54.786Z,101558.20
2022-10-21T08:36:57.706Z,101560.95
2022-10-21T08:38:00.723Z,101565.13
2022-10-21T08:39:03.950Z,101562.16
2022-10-21T08:40:07.377Z,101563.92
2022-10-21T08:41:11.664Z,101565.68
2022-10-21T08:42:16.455Z,101570.69
2022-10-21T08:43:19.336Z,101569.05
2022-10-21T08:44:37.910Z,101567.77
2022-10-21T08:45:46.369Z,101572.13
2022-10-21T08:47:04.644Z,101567.99
2022-10-21T08:48:12.654Z,101566.37
2022-10-21T08:49:15.756Z,101562.71
2022-10-21T08:50:20.431Z,101561.52
2022-10-21T08:51:27.194Z,101566.48
2022-10-21T08:52:39.368Z,101561.66
2022-10-21T08:53:46.867Z,101561.80
2022-10-21T08:55:00.453Z,101555.52
2022-10-21T08:56:09.797Z,101556.64
2022-10-21T08:57:12.705Z,101555.21
2022-10-21T08:58:18.314Z,101556.73
2022-10-21T08:59:23.154Z,101552.24
2022-10-21T09:00:32.877Z,101553.39
2022-10-21T09:01:43.158Z,101550.73
2022-10-21T09:02:54.958Z,101545.38
2022-10-21T09:04:10.181Z,101542.40
2022-10-21T09:05:19.682Z,101542.13
2022-10-21T09:06:23.083Z,101542.37
2022-10-21T09:07:32.200Z,101546.63
2022-10-21T09:08:35.446Z,101545.67
2022-10-21T09:09:47.179Z,101539.21
2022-10-21T09:10:56.302Z,101539.85
2022-10-21T09:12:08.078Z,101533.19
2022-10-21T09:13:29.925Z,101538.52
2022-10-21T09:14:51.718Z,101535.96
2022-10-21T09:16:04.298Z,101530.02
2022-10-21T09:17:18.458Z,101526.64
2022-10-21T09:18:28.178Z,101522.72
2022-10-21T09:19:37.400Z,101523.27
2022-10-21T09:21:03.196Z,101519.89
2022-10-21T09:22:33.581Z,101515.39
2022-10-21T09:23:42.565Z,101523.22
2022-10-21T09:24:52.545Z,101523.86
2022-10-21T09:26:04.249Z,101528.46
2022-10-21T09:27:09.927Z,101522.63
2022-10-21T09:28:13.812Z,101520.71
2022-10-21T09:29:20.687Z,101519.27
2022-10-21T09:30:24.075Z,101523.52
2022-10-21T09:31:28.552Z,101532.80
2022-10-21T09:32:41.915Z,101530.66
2022-10-21T09:33:50.095Z,101529.89
2022-10-21T09:34:52.985Z,101529.39
2022-10-21T09:36:08.222Z,101534.29
2022-10-21T09:37:35.505Z,101525.21
2022-10-21T09:38:38.667Z,101528.77
2022-10-21T09:39:50.141Z,101532.78
2022-10-21T09:40:59.401Z,101536.95
2022-10-21T09:42:07.325Z,101536.33
2022-10-21T09:43:22.546Z,101535.70
2022-10-21T09:44:25.430Z,101532.02
2022-10-21T09:45:32.571Z,101534.14
2022-10-21T09:46:35.549Z,101531.52
2022-10-21T09:47:38.421Z,101538.15
2022-10-21T09:49:08.267Z,101530.25
2022-10-21T09:50:13.073Z,101530.09
2022-10-21T09:51:18.585Z,101525.55
2022-10-21T09:52:23.124Z,101524.18
2022-10-21T09:53:34.462Z,101522.48
2022-10-21T09:54:39.602Z,101521.71
2022-10-21T09:55:44.495Z,101524.34
2022-10-21T09:56:54.766Z,101522.49
2022-10-21T09:57:59.061Z,101527.30
2022-10-21T09:59:10.062Z,101520.91
2022-10-21T10:00:14.396Z,101515.90
2022-10-21T10:01:20.798Z,101512.92
2022-10-21T10:02:45.183Z,101513.75
2022-10-21T10:03:49.809Z,101507.45
2022-10-21T10:04:52.777Z,101505.66
2022-10-21T10:05:55.692Z,101509.96
2022-10-21T10:07:02.460Z,101508.45
2022-10-21T10:08:25.711Z,101504.02
2022-10-21T10:09:32.746Z,101504.23
2022-10-21T10:10:35.508Z,101501.27
2022-10-21T10:11:51.619Z,101501.95
2022-10-21T10:12:58.656Z,101499.48
2022-10-21T10:14:21.600Z,101497.63
2022-10-21T10:15:31.470Z,101497.46
2022-10-21T10:16:34.729Z,101493.23
2022-10-21T10:17:39.825Z,101484.44
2022-10-21T10:18:43.530Z,101481.42
2022-10-21T10:20:05.538Z,101482.91
2022-10-21T10:21:10.725Z,101485.26
2022-10-21T10:22:14.801Z,101477.60
2022-10-21T10:23:18.922Z,101478.73
2022-10-21T10:24:21.982Z,101472.92
2022-10-21T10:25:28.619Z,101465.11
2022-10-21T10:26:33.357Z,101462.34
2022-10-21T10:27:36.612Z,101463.21
2022-10-21T10:29:42.982Z,101455.31
2022-10-21T10:30:56.107Z,101452.55
2022-10-21T10:32:01.457Z,101449.01
2022-10-21T10:33:14.571Z,101449.45
2022-10-21T10:34:27.361Z,101449.80
2022-10-21T10:35:34.157Z,101451.95
2022-10-21T10:36:38.756Z,101450.37
2022-10-21T10:37:46.410Z,101446.94
2022-10-21T10:38:53.853Z,101448.60
2022-10-21T10:39:58.658Z,101447.50
2022-10-21T10:41:04.395Z,101440.86
2022-10-21T10:42:07.895Z,101441.79
2022-10-21T10:43:43.312Z,101437.41
2022-10-21T10:44:46.520Z,101437.12
2022-10-21T10:45:52.226Z,101435.55
2022-10-21T10:46:56.908Z,101431.10
2022-10-21T10:48:04.012Z,101432.22
2022-10-21T10:49:21.320Z,101434.55
2022-10-21T10:50:42.757Z,101436.09
2022-10-21T10:51:47.154Z,101440.21
2022-10-21T10:53:09.317Z,101439.00
2022-10-21T10:54:23.861Z,101439.61
2022-10-21T10:55:27.929Z,101435.77
2022-10-21T10:56:37.032Z,101432.68
2022-10-21T10:57:45.870Z,101432.13
2022-10-21T10:59:03.698Z,101426.85
2022-10-21T11:00:10.140Z,101424.85
2022-10-21T11:01:17.591Z,101423.82
2022-10-21T11:02:23.994Z,101419.21
2022-10-21T11:03:29.831Z,101426.80
2022-10-21T11:04:35.476Z,101418.56
2022-10-21T11:05:46.047Z,101412.05
2022-10-21T11:06:52.471Z,101408.77
2022-10-21T11:07:57.515Z,101407.55
2022-10-21T11:09:01.914Z,101407.69
2022-10-21T11:10:08.790Z,101416.48
2022-10-21T11:11:34.704Z,101419.68
2022-10-21T11:12:38.379Z,101421.60
2022-10-21T11:13:42.229Z,101423.16
2022-10-21T11:14:48.453Z,101421.02
2022-10-21T11:15:54.359Z,101421.86
2022-10-21T11:17:09.617Z,101419.41
2022-10-21T11:18:30.176Z,101422.10
2022-10-21T11:19:32.953Z,101421.70
2022-10-21T11:20:53.001Z,101422.29
2022-10-21T11:22:05.788Z,101425.53
2022-10-21T11:23:18.288Z,101427.27
2022-10-21T11:24:21.039Z,101417.58
2022-10-21T11:25:30.457Z,101418.02
2022-10-21T11:26:42.393Z,101412.58
2022-10-21T11:27:45.159Z,101411.30
2022-10-21T11:28:52.333Z,101413.28
2022-10-21T11:30:01.191Z,101413.63
2022-10-21T11:31:43.727Z,101410.55
2022-10-21T11:33:07.367Z,101402.66
2022-10-21T11:34:30.699Z,101407.47
2022-10-21T11:35:36.210Z,101403.18
2022-10-21T11:36:57.570Z,101403.80
2022-10-21T11:38:14.446Z,101401.50
2022-10-21T11:39:35.942Z,101400.59
2022-10-21T11:40:46.515Z,101396.22
2022-10-21T11:41:56.754Z,101392.14
2022-10-21T11:43:05.725Z,101387.90
2022-10-21T11:44:11.426Z,101388.57
2022-10-21T11:45:20.808Z,101389.86
2022-10-21T11:46:39.215Z,101385.84
2022-10-21T11:47:44.838Z,101380.05
2022-10-21T11:48:53.851Z,101378.67
2022-10-21T11:50:03.751Z,101376.64
2022-10-21T11:51:09.533Z,101378.93
2022-10-21T11:52:19.544Z,101379.63
2022-10-21T11:53:41.308Z,101376.83
2022-10-21T11:55:11.055Z,101376.98
2022-10-21T11:56:17.366Z,101374.03
2022-10-21T11:57:27.169Z,101370.80
2022-10-21T11:58:30.206Z,101367.35
2022-10-21T11:59:48.194Z,101364.73
2022-10-21T12:01:07.477Z,101365.75
2022-10-21T12:02:25.751Z,101368.23
2022-10-21T12:03:51.737Z,101367.26
2022-10-21T12:05:06.859Z,101364.96
2022-10-21T12:06:26.486Z,101370.02
2022-10-21T12:07:32.664Z,101365.73
2022-10-21T12:08:54.113Z,101368.52
2022-10-21T12:10:04.218Z,101364.88
2022-10-21T12:11:14.363Z,101366.75
2022-10-21T12:12:19.309Z,101364.16
2022-10-21T12:13:41.702Z,101361.23
2022-10-21T12:14:54.615Z,101360.36
2022-10-21T12:16:02.296Z,101366.11
2022-10-21T12:17:07.112Z,101369.98
2022-10-21T12:18:30.139Z,101367.02
2022-10-21T12:19:33.142Z,101366.68
2022-10-21T12:20:36.052Z,101366.54
2022-10-21T12:21:40.011Z,101366.88
2022-10-21T12:22:43.158Z,101366.97
2022-10-21T12:23:50.757Z,101374.73
2022-10-21T12:24:53.687Z,101374.66
2022-10-21T12:26:07.070Z,101371.89
2022-10-21T12:27:17.219Z,101368.96
2022-10-21T12:28:28.673Z,101372.90
2022-10-21T12:29:54.778Z,101369.02
2022-10-21T12:31:00.709Z,101363.80
2022-10-21T12:32:14.709Z,101361.50
2022-10-21T12:33:23.785Z,101358.40
2022-10-21T12:34:26.981Z,101355.47
2022-10-21T12:36:49.562Z,101357.27
2022-10-21T12:37:53.015Z,101356.30
2022-10-21T12:38:56.827Z,101365.27
2022-10-21T12:40:17.513Z,101362.58
2022-10-21T12:41:22.544Z,101362.59
2022-10-21T12:42:28.904Z,101363.98
2022-10-21T12:43:31.846Z,101365.44
2022-10-21T12:44:37.348Z,101367.96
2022-10-21T12:45:40.323Z,101368.16
2022-10-21T12:46:45.038Z,101360.95
2022-10-21T12:47:48.309Z,101360.42